Time;durP1;ratioP1;P1;durP2;ratioP2;P2;SDS_P1;SDS_P2;PMS_P1;PMS_P2;Temp;Humidity;BMP_temperature;BMP_pressure;BME280_temperature;BME280_humidity;BME280_pressure;Samples;Min_cycle;Max_cycle;Signal;HPM_P1;HPM_P2
2021/01/30 00:01:14;;;;;;;86.07;39.75;;;;;;;0.36;57.82;98165.13;5047140;28;20052;-75
2021/01/30 00:03:40;;;;;;;90.30;39.30;;;;;;;0.36;58.16;98157.34;5044489;28;20063;-78
2021/01/30 00:06:07;;;;;;;91.30;38.22;;;;;;;0.37;57.96;98151.22;5045571;28;20049;-76
2021/01/30 00:08:33;;;;;;;74.80;36.92;;;;;;;0.33;58.10;98150.59;5046165;28;20136;-72
2021/01/30 00:11:00;;;;;;;80.13;39.30;;;;;;;0.36;58.12;98154.75;5044554;28;20048;-73
2021/01/30 00:13:26;;;;;;;79.28;35.15;;;;;;;0.41;58.11;98144.88;5043350;28;20091;-71
2021/01/30 00:15:54;;;;;;;77.93;36.53;;;;;;;0.45;57.92;98146.38;5045503;28;20048;-73
2021/01/30 00:18:20;;;;;;;75.10;33.70;;;;;;;0.54;57.58;98147.53;5043833;28;20040;-70
2021/01/30 00:20:46;;;;;;;79.25;35.83;;;;;;;0.57;57.42;98142.97;5045968;28;20519;-72
2021/01/30 00:23:13;;;;;;;72.45;35.03;;;;;;;0.55;57.61;98149.19;5044237;28;20049;-70
2021/01/30 00:25:39;;;;;;;71.93;34.00;;;;;;;0.57;57.80;98161.13;5045062;28;20044;-74
2021/01/30 00:28:07;;;;;;;63.92;32.47;;;;;;;0.55;57.77;98157.81;5046898;28;20068;-70
2021/01/30 00:30:35;;;;;;;74.93;34.53;;;;;;;0.55;57.68;98159.59;5045798;28;20041;-71
2021/01/30 00:33:04;;;;;;;73.55;32.75;;;;;;;0.60;58.00;98148.91;5045003;28;20538;-74
2021/01/30 00:35:36;;;;;;;69.93;33.63;;;;;;;0.61;57.75;98155.75;5047236;28;20115;-73
2021/01/30 00:38:03;;;;;;;72.50;32.90;;;;;;;0.64;57.70;98158.16;5044917;28;20045;-73
2021/01/30 00:40:30;;;;;;;72.20;33.00;;;;;;;0.66;57.43;98156.28;5044663;28;20049;-74
2021/01/30 00:42:57;;;;;;;68.60;30.98;;;;;;;0.69;57.57;98153.50;5045270;28;20057;-69
2021/01/30 00:45:26;;;;;;;66.85;32.70;;;;;;;0.72;57.32;98145.47;5045730;28;20045;-71
2021/01/30 00:47:53;;;;;;;80.22;35.00;;;;;;;0.73;57.22;98141.97;5046644;28;20045;-73
2021/01/30 00:50:21;;;;;;;67.40;33.22;;;;;;;0.74;57.64;98143.63;5047000;28;20053;-76
2021/01/30 00:52:48;;;;;;;74.28;34.75;;;;;;;0.73;57.54;98144.56;5045030;28;20049;-73
2021/01/30 00:55:18;;;;;;;71.18;33.25;;;;;;;0.73;57.36;98144.56;5046381;28;20044;-70
2021/01/30 00:57:45;;;;;;;67.57;36.45;;;;;;;0.76;57.30;98142.59;5048914;28;20087;-73
2021/01/30 01:00:14;;;;;;;80.45;35.83;;;;;;;0.76;57.86;98140.00;5051361;28;20091;-73
2021/01/30 01:02:42;;;;;;;71.45;35.20;;;;;;;0.78;57.38;98142.50;5036426;28;20049;-77
2021/01/30 01:05:10;;;;;;;68.32;36.10;;;;;;;0.65;57.62;98152.88;5051196;28;20037;-72
2021/01/30 01:07:37;;;;;;;78.78;35.30;;;;;;;0.60;57.60;98161.91;5064175;28;20053;-75
2021/01/30 01:10:06;;;;;;;92.55;36.05;;;;;;;0.59;57.83;98165.41;5062722;28;20048;-74
2021/01/30 01:12:33;;;;;;;84.10;37.38;;;;;;;0.61;57.66;98158.34;5019082;28;20057;-72
2021/01/30 01:14:59;;;;;;;83.60;37.65;;;;;;;0.66;57.38;98157.13;5063808;28;20087;-73
2021/01/30 01:17:25;;;;;;;88.75;39.22;;;;;;;0.68;57.56;98149.22;5063670;28;20108;-80
2021/01/30 01:19:52;;;;;;;81.88;40.78;;;;;;;0.68;57.39;98150.03;5051530;28;20132;-75
2021/01/30 01:22:18;;;;;;;92.28;41.30;;;;;;;0.66;57.61;98158.88;5051120;28;20489;-75
2021/01/30 01:24:45;;;;;;;83.10;37.55;;;;;;;0.65;57.70;98157.22;5050896;28;20101;-74
2021/01/30 01:27:12;;;;;;;95.47;39.53;;;;;;;0.68;57.66;98157.03;5051628;28;20125;-77
2021/01/30 01:29:39;;;;;;;76.20;37.10;;;;;;;0.71;57.49;98164.63;5048449;28;20052;-78
2021/01/30 01:32:05;;;;;;;65.43;32.72;;;;;;;0.75;57.51;98171.28;5046901;28;20045;-77
2021/01/30 01:34:32;;;;;;;62.17;30.33;;;;;;;0.79;57.29;98167.53;5046992;28;20045;-74
2021/01/30 01:37:01;;;;;;;71.15;33.33;;;;;;;0.76;57.23;98165.97;5045894;28;20068;-70
2021/01/30 01:39:29;;;;;;;65.90;31.50;;;;;;;0.74;57.38;98165.25;5045778;28;20045;-75
2021/01/30 01:41:59;;;;;;;70.38;34.42;;;;;;;0.78;57.01;98168.47;5044896;28;20052;-74
2021/01/30 01:44:25;;;;;;;64.90;30.70;;;;;;;0.81;57.44;98165.69;5043532;28;20048;-73
2021/01/30 01:46:54;;;;;;;72.80;33.20;;;;;;;0.81;57.14;98159.63;5046104;28;20129;-72
2021/01/30 01:49:27;;;;;;;63.38;30.05;;;;;;;0.72;57.30;98159.31;5045482;28;20126;-71
2021/01/30 01:52:04;;;;;;;56.35;29.17;;;;;;;0.70;57.38;98157.75;5047118;28;20109;-73
2021/01/30 01:54:32;;;;;;;59.17;30.05;;;;;;;0.71;57.09;98154.22;5047228;28;20049;-73
2021/01/30 01:57:07;;;;;;;66.70;28.13;;;;;;;0.77;57.30;98153.81;5046477;28;20050;-73
2021/01/30 01:59:39;;;;;;;60.10;31.95;;;;;;;0.78;56.87;98145.09;5045144;28;20045;-72
2021/01/30 02:02:05;;;;;;;62.00;30.88;;;;;;;0.69;57.06;98153.50;5044795;28;20574;-71
2021/01/30 02:04:33;;;;;;;59.17;28.00;;;;;;;0.61;57.64;98145.38;5027046;28;20049;-69
2021/01/30 02:07:00;;;;;;;67.10;32.95;;;;;;;0.60;57.30;98147.13;5044121;28;20049;-73
2021/01/30 02:09:27;;;;;;;68.05;31.50;;;;;;;0.66;57.30;98145.91;5044639;28;20461;-73
2021/01/30 02:12:04;;;;;;;59.72;29.98;;;;;;;0.70;57.25;98136.97;5043842;28;20055;-73
2021/01/30 02:14:33;;;;;;;67.80;30.60;;;;;;;0.65;57.44;98134.69;5042794;28;20049;-73
2021/01/30 02:17:11;;;;;;;59.15;30.23;;;;;;;0.55;57.56;98129.25;5044406;28;20163;-75
2021/01/30 02:20:15;;;;;;;60.50;28.05;;;;;;;0.51;57.80;98132.16;5046832;28;20579;-75
2021/01/30 02:23:12;;;;;;;69.15;31.52;;;;;;;0.57;57.73;98129.16;4982873;28;20055;-73
2021/01/30 02:26:15;;;;;;;66.07;31.10;;;;;;;0.60;57.66;98134.16;4982593;28;20056;-73
2021/01/30 02:28:51;;;;;;;67.35;32.40;;;;;;;0.60;57.71;98128.94;4944161;28;20047;-73
2021/01/30 02:31:43;;;;;;;61.80;30.10;;;;;;;0.59;57.73;98126.44;4943708;28;20117;-75
2021/01/30 02:34:42;;;;;;;58.85;30.55;;;;;;;0.62;58.03;98118.47;4944479;29;20048;-76
2021/01/30 02:37:15;;;;;;;75.80;33.03;;;;;;;0.66;57.56;98119.91;4924644;29;20138;-71
2021/01/30 02:39:48;;;;;;;66.22;31.38;;;;;;;0.62;57.60;98108.91;4943318;28;20082;-70
2021/01/30 02:42:19;;;;;;;69.45;32.78;;;;;;;0.62;57.96;98119.28;4946895;28;20081;-71
2021/01/30 02:44:51;;;;;;;68.38;32.00;;;;;;;0.70;57.74;98121.38;4945962;28;20051;-72
2021/01/30 02:47:21;;;;;;;60.83;32.22;;;;;;;0.66;57.85;98112.13;4946369;29;20613;-72
2021/01/30 02:49:53;;;;;;;59.40;29.08;;;;;;;0.62;58.30;98113.28;4947984;28;20047;-71
2021/01/30 02:52:24;;;;;;;57.83;28.77;;;;;;;0.64;58.19;98111.41;4947507;29;20193;-72
2021/01/30 02:54:54;;;;;;;59.30;30.35;;;;;;;0.76;57.88;98111.41;4946861;29;20542;-70
2021/01/30 02:57:24;;;;;;;62.72;30.83;;;;;;;0.78;57.62;98107.91;4948508;28;20133;-71
2021/01/30 02:59:59;;;;;;;52.53;26.20;;;;;;;0.74;57.85;98104.66;4957615;28;20046;-68
2021/01/30 03:02:26;;;;;;;;;;;;;;;0.91;57.58;98103.53;4985641;28;20106;-68
2021/01/30 03:04:54;;;;;;;46.00;21.67;;;;;;;0.65;57.72;98110.44;4996631;28;19921;-70
2021/01/30 03:07:42;;;;;;;50.85;23.50;;;;;;;0.49;58.53;98101.09;5046409;28;20119;-69
2021/01/30 03:10:16;;;;;;;50.22;24.40;;;;;;;0.39;58.58;98113.00;5048370;28;20048;-67
2021/01/30 03:12:54;;;;;;;38.70;20.58;;;;;;;0.42;58.42;98107.63;5046943;28;20102;-67
2021/01/30 03:15:27;;;;;;;56.22;27.98;;;;;;;0.38;58.41;98106.16;5047138;28;20110;-66
2021/01/30 03:17:57;;;;;;;53.75;27.55;;;;;;;0.38;58.48;98100.97;5047205;28;20052;-68
2021/01/30 03:20:24;;;;;;;55.28;27.85;;;;;;;0.45;58.56;98102.22;5047008;28;20041;-69
2021/01/30 03:22:54;;;;;;;61.45;28.45;;;;;;;0.46;58.34;98103.88;5046722;28;20059;-69
2021/01/30 03:25:24;;;;;;;57.15;26.60;;;;;;;0.50;58.42;98105.31;5047139;28;20621;-68
2021/01/30 03:27:51;;;;;;;55.50;28.05;;;;;;;0.51;58.45;98107.00;5046155;28;20045;-67
2021/01/30 03:30:18;;;;;;;46.50;21.40;;;;;;;0.47;58.69;98102.09;5046647;28;20161;-70
2021/01/30 03:32:45;;;;;;;57.95;25.73;;;;;;;0.43;58.74;98103.25;5047086;28;20067;-69
2021/01/30 03:35:12;;;;;;;50.88;25.63;;;;;;;0.44;58.71;98107.53;5046020;28;20053;-70
2021/01/30 03:37:39;;;;;;;52.15;25.42;;;;;;;0.43;58.69;98105.84;5046057;28;20547;-68
2021/01/30 03:40:11;;;;;;;50.33;25.42;;;;;;;0.49;58.65;98106.28;5046660;28;20057;-67
2021/01/30 03:42:38;;;;;;;48.75;25.13;;;;;;;0.50;58.95;98101.91;5045820;28;20045;-70
2021/01/30 03:45:06;;;;;;;51.92;25.10;;;;;;;0.48;58.84;98096.81;5044455;28;20045;-67
2021/01/30 03:47:33;;;;;;;43.33;24.13;;;;;;;0.46;59.00;98092.66;5047431;28;20164;-69
2021/01/30 03:49:59;;;;;;;44.30;22.10;;;;;;;0.51;58.68;98086.22;5046557;28;20059;-68
2021/01/30 03:52:26;;;;;;;47.50;22.48;;;;;;;0.44;58.96;98087.56;5046187;28;20049;-69
2021/01/30 03:54:54;;;;;;;48.35;23.67;;;;;;;0.37;58.92;98086.31;5048250;28;20048;-71
2021/01/30 03:57:22;;;;;;;42.88;21.83;;;;;;;0.42;58.82;98086.84;5047384;28;20065;-75
2021/01/30 03:59:49;;;;;;;50.70;23.20;;;;;;;0.42;58.81;98088.63;5048238;28;20045;-74
2021/01/30 04:02:15;;;;;;;39.88;19.70;;;;;;;0.30;59.07;98087.63;5047821;28;20106;-70
2021/01/30 04:04:44;;;;;;;38.47;19.42;;;;;;;0.24;59.36;98085.44;5046767;28;20115;-68
2021/01/30 04:07:13;;;;;;;40.53;19.58;;;;;;;0.14;59.15;98088.63;5045225;28;20068;-70
2021/01/30 04:09:40;;;;;;;40.65;19.98;;;;;;;0.07;59.69;98087.34;5028323;28;20128;-73
2021/01/30 04:12:08;;;;;;;40.83;19.48;;;;;;;0.06;59.52;98090.06;5046264;28;20045;-74
2021/01/30 04:14:36;;;;;;;39.47;19.10;;;;;;;0.05;59.75;98093.59;5026660;28;20049;-70
2021/01/30 04:17:03;;;;;;;41.25;20.23;;;;;;;0.02;59.46;98085.97;5045803;28;20056;-74
2021/01/30 04:19:29;;;;;;;35.85;18.92;;;;;;;0.00;59.71;98086.09;5044985;28;20059;-71
2021/01/30 04:21:55;;;;;;;43.67;19.38;;;;;;;-0.03;59.81;98079.34;5045750;28;20049;-69
2021/01/30 04:24:22;;;;;;;38.92;20.38;;;;;;;-0.02;59.51;98073.22;5045675;28;20049;-68
2021/01/30 04:26:49;;;;;;;36.88;18.80;;;;;;;0.01;59.64;98077.38;5045347;28;20175;-69
2021/01/30 04:29:16;;;;;;;44.92;18.83;;;;;;;0.02;59.58;98081.66;5044958;28;20048;-69
2021/01/30 04:31:44;;;;;;;41.50;20.63;;;;;;;0.02;59.71;98079.06;5045650;28;20057;-67
2021/01/30 04:34:11;;;;;;;46.03;20.75;;;;;;;0.01;59.77;98071.34;5045625;28;20462;-68
2021/01/30 04:36:38;;;;;;;36.50;22.70;;;;;;;0.00;59.80;98067.94;5046306;28;20046;-70
2021/01/30 04:39:12;;;;;;;41.55;21.08;;;;;;;0.01;59.75;98079.16;5045928;28;20041;-70
2021/01/30 04:41:49;;;;;;;40.88;20.17;;;;;;;0.00;59.70;98078.31;5047102;28;20397;-70
2021/01/30 04:44:23;;;;;;;51.80;22.65;;;;;;;-0.06;59.71;98076.09;5044809;28;20048;-69
2021/01/30 04:47:00;;;;;;;48.38;21.55;;;;;;;-0.09;59.97;98073.69;5045145;28;20045;-68
2021/01/30 04:49:44;;;;;;;39.78;19.88;;;;;;;-0.11;59.89;98079.00;5046124;28;20379;-67
2021/01/30 04:52:24;;;;;;;44.28;21.33;;;;;;;-0.09;59.78;98073.69;5045888;28;20049;-71
2021/01/30 04:55:12;;;;;;;38.88;20.27;;;;;;;-0.11;60.17;98067.78;5045087;28;20041;-65
2021/01/30 04:57:48;;;;;;;49.72;24.73;;;;;;;-0.12;59.78;98061.75;5045662;28;20045;-69
2021/01/30 05:00:52;;;;;;;40.47;22.70;;;;;;;-0.13;59.87;98061.84;5045785;28;20049;-69
2021/01/30 05:03:51;;;;;;;44.20;23.15;;;;;;;-0.12;60.00;98071.31;4964698;28;20082;-71
2021/01/30 05:06:23;;;;;;;46.40;22.20;;;;;;;-0.12;60.14;98066.13;4965351;28;20051;-69
2021/01/30 05:08:59;;;;;;;47.42;22.58;;;;;;;-0.13;59.84;98070.47;4964622;28;20600;-71
2021/01/30 05:11:28;;;;;;;47.38;25.88;;;;;;;-0.06;59.83;98070.91;4963703;28;20047;-67
2021/01/30 05:14:01;;;;;;;46.83;21.83;;;;;;;-0.07;59.96;98066.66;4961036;28;20129;-66
2021/01/30 05:16:32;;;;;;;56.90;25.52;;;;;;;-0.05;60.22;98063.03;4961527;28;20050;-67
2021/01/30 05:19:01;;;;;;;50.15;25.95;;;;;;;-0.06;59.98;98057.94;4962414;28;20077;-65
2021/01/30 05:21:39;;;;;;;59.67;29.80;;;;;;;-0.03;60.12;98055.16;4963017;28;20050;-67
2021/01/30 05:24:06;;;;;;;54.72;25.95;;;;;;;-0.04;60.05;98048.28;4961831;28;20057;-68
2021/01/30 05:26:42;;;;;;;55.05;32.05;;;;;;;-0.02;60.11;98056.81;4961316;28;20058;-66
2021/01/30 05:29:11;;;;;;;;;;;;;;;0.10;59.62;98050.00;4963078;28;20046;-67
2021/01/30 05:31:47;;;;;;;49.30;24.58;;;;;;;-0.07;60.07;98049.31;4961933;28;19922;-66
2021/01/30 05:34:15;;;;;;;58.03;27.65;;;;;;;-0.11;60.08;98050.47;4962722;28;20043;-66
2021/01/30 05:36:48;;;;;;;53.65;25.35;;;;;;;-0.11;60.30;98052.19;4965956;28;20068;-67
2021/01/30 05:39:53;;;;;;;54.05;25.40;;;;;;;-0.11;60.42;98054.81;5042544;28;20067;-67
2021/01/30 05:42:29;;;;;;;51.97;23.45;;;;;;;-0.10;60.33;98046.91;5045345;28;20049;-70
2021/01/30 05:45:07;;;;;;;48.08;25.13;;;;;;;-0.08;60.09;98049.41;5025870;28;20041;-71
2021/01/30 05:47:34;;;;;;;47.55;24.08;;;;;;;-0.10;60.32;98046.09;5046053;28;20049;-74
2021/01/30 05:50:12;;;;;;;50.35;25.20;;;;;;;-0.08;60.39;98052.03;5046279;28;20049;-70
2021/01/30 05:52:40;;;;;;;42.25;22.40;;;;;;;-0.07;60.10;98048.50;5046559;28;20049;-72
2021/01/30 05:55:22;;;;;;;52.13;24.52;;;;;;;-0.06;60.56;98042.38;5046330;28;20111;-71
2021/01/30 05:57:49;;;;;;;53.75;25.15;;;;;;;-0.06;60.33;98044.97;5046047;28;20053;-70
2021/01/30 06:00:19;;;;;;;49.35;22.67;;;;;;;-0.05;60.30;98049.22;5047582;28;20045;-68
2021/01/30 06:03:02;;;;;;;51.22;25.20;;;;;;;-0.05;60.35;98049.22;5046757;28;20076;-69
2021/01/30 06:05:31;;;;;;;52.17;25.35;;;;;;;-0.05;60.20;98037.09;5047196;28;20045;-69
2021/01/30 06:08:23;;;;;;;48.63;24.75;;;;;;;-0.06;60.35;98043.19;5050767;28;20060;-68
2021/01/30 06:10:52;;;;;;;42.67;25.98;;;;;;;-0.08;60.19;98034.69;5054107;28;20049;-72
2021/01/30 06:13:22;;;;;;;56.90;27.13;;;;;;;-0.07;60.35;98041.53;5052107;28;20060;-72
2021/01/30 06:15:52;;;;;;;42.92;21.17;;;;;;;-0.12;60.52;98047.97;5055159;28;20040;-71
2021/01/30 06:18:35;;;;;;;42.72;20.55;;;;;;;-0.11;60.81;98047.88;5050824;28;20052;-69
2021/01/30 06:21:17;;;;;;;50.42;25.05;;;;;;;-0.09;60.59;98051.19;5048767;28;20673;-66
2021/01/30 06:24:03;;;;;;;49.00;22.17;;;;;;;-0.06;60.53;98047.56;5047922;28;20412;-69
2021/01/30 06:26:32;;;;;;;43.95;20.92;;;;;;;-0.07;60.38;98038.94;5049204;28;20109;-69
2021/01/30 06:29:02;;;;;;;40.92;18.73;;;;;;;-0.11;60.59;98039.22;5048509;28;20049;-70
2021/01/30 06:31:39;;;;;;;42.40;19.02;;;;;;;-0.15;60.73;98038.59;5048754;28;20052;-68
2021/01/30 06:34:20;;;;;;;37.35;20.30;;;;;;;-0.15;60.97;98048.16;5049822;28;20176;-70
2021/01/30 06:36:50;;;;;;;45.45;21.30;;;;;;;-0.15;60.98;98045.56;5051103;28;20405;-70
2021/01/30 06:39:26;;;;;;;45.83;22.80;;;;;;;-0.14;60.73;98048.06;5050333;28;20104;-71
2021/01/30 06:41:56;;;;;;;42.47;20.38;;;;;;;-0.11;60.93;98045.28;5049920;28;20500;-72
2021/01/30 06:44:27;;;;;;;50.28;23.88;;;;;;;-0.11;60.99;98042.69;5046291;28;20056;-70
2021/01/30 06:47:04;;;;;;;44.08;20.15;;;;;;;0.00;60.89;98052.38;5046873;28;20496;-71
2021/01/30 06:49:36;;;;;;;38.22;19.83;;;;;;;0.01;60.59;98055.78;5046631;28;20045;-67
2021/01/30 06:52:14;;;;;;;41.40;20.20;;;;;;;0.06;60.75;98058.91;5045939;28;20064;-67
2021/01/30 06:54:41;;;;;;;39.25;20.30;;;;;;;0.07;60.65;98053.59;5046906;28;20245;-67
2021/01/30 06:57:13;;;;;;;41.92;22.55;;;;;;;0.08;60.46;98041.47;5046519;28;20053;-69
2021/01/30 06:59:51;;;;;;;39.30;20.65;;;;;;;0.10;60.81;98045.63;5044696;28;20655;-65
2021/01/30 07:02:23;;;;;;;44.63;22.27;;;;;;;0.15;60.70;98038.38;5045964;28;20352;-66
2021/01/30 07:05:05;;;;;;;52.17;25.23;;;;;;;0.19;60.51;98039.00;5046731;28;20044;-71
2021/01/30 07:07:38;;;;;;;44.65;22.70;;;;;;;0.19;60.53;98034.63;5028891;28;20056;-68
2021/01/30 07:10:19;;;;;;;43.47;21.60;;;;;;;0.21;60.78;98036.31;5045781;28;20520;-69
2021/01/30 07:13:04;;;;;;;55.78;27.85;;;;;;;0.24;60.29;98026.56;5048114;28;20045;-69
2021/01/30 07:15:33;;;;;;;40.70;18.70;;;;;;;0.26;60.48;98026.47;5046637;28;20052;-67
2021/01/30 07:18:18;;;;;;;48.13;21.80;;;;;;;0.17;60.40;98028.72;5045569;28;20245;-69
2021/01/30 07:21:13;;;;;;;40.33;20.02;;;;;;;0.23;60.60;98024.06;5047735;28;20041;-69
2021/01/30 07:23:44;;;;;;;37.30;17.92;;;;;;;0.18;60.65;98033.00;5048098;28;20045;-72
2021/01/30 07:26:20;;;;;;;38.20;17.95;;;;;;;0.29;60.43;98031.44;5046807;28;20557;-67
2021/01/30 07:28:55;;;;;;;38.75;17.83;;;;;;;0.37;60.00;98031.78;5044922;28;20146;-69
2021/01/30 07:31:27;;;;;;;;;;;;;;;0.50;59.72;98035.19;5047642;28;20045;-72
2021/01/30 07:33:59;;;;;;;35.05;17.13;;;;;;;0.42;59.73;98034.91;5027252;28;19943;-73
2021/01/30 07:36:31;;;;;;;35.53;20.33;;;;;;;0.43;60.03;98038.31;5033599;28;20045;-71
2021/01/30 07:39:06;;;;;;;33.28;18.25;;;;;;;0.48;60.07;98044.03;5046556;28;20045;-69
2021/01/30 07:41:48;;;;;;;35.60;18.42;;;;;;;0.53;59.88;98041.97;5044040;28;20048;-68
2021/01/30 07:44:20;;;;;;;32.13;16.63;;;;;;;0.58;60.16;98045.09;5042556;28;20077;-70
2021/01/30 07:46:55;;;;;;;32.38;17.15;;;;;;;0.62;59.86;98053.53;5043256;28;20048;-70
2021/01/30 07:49:27;;;;;;;32.45;16.00;;;;;;;0.67;59.81;98044.47;5044272;28;20045;-69
2021/01/30 07:52:00;;;;;;;33.22;16.90;;;;;;;0.70;59.69;98043.44;5045835;28;20064;-71
2021/01/30 07:54:26;;;;;;;37.92;19.58;;;;;;;0.70;59.97;98046.03;5044700;28;20110;-72
2021/01/30 07:57:15;;;;;;;35.97;17.08;;;;;;;0.66;60.19;98042.81;5042893;28;20126;-72
2021/01/30 07:59:48;;;;;;;34.58;17.08;;;;;;;0.60;60.36;98042.41;5046294;28;20062;-71
2021/01/30 08:02:43;;;;;;;36.78;18.73;;;;;;;0.51;60.52;98039.47;5044825;28;20052;-72
2021/01/30 08:05:35;;;;;;;34.38;17.88;;;;;;;0.51;60.23;98039.47;5045098;28;20826;-71
2021/01/30 08:08:19;;;;;;;36.40;19.40;;;;;;;0.58;60.14;98039.91;5043792;28;20056;-69
2021/01/30 08:10:58;;;;;;;43.17;20.38;;;;;;;0.61;60.07;98044.06;5044224;28;20045;-72
2021/01/30 08:13:46;;;;;;;33.65;19.95;;;;;;;0.67;60.22;98041.06;5042805;28;20049;-70
2021/01/30 08:16:25;;;;;;;35.63;18.60;;;;;;;0.63;60.45;98042.19;5041869;28;20057;-71
2021/01/30 08:18:53;;;;;;;34.80;18.58;;;;;;;0.71;59.95;98039.91;5043927;28;20056;-66
2021/01/30 08:21:33;;;;;;;32.55;18.55;;;;;;;0.72;60.16;98041.56;5042597;28;20077;-67
2021/01/30 08:24:08;;;;;;;46.60;20.80;;;;;;;0.70;60.34;98044.28;5041820;28;20588;-72
2021/01/30 08:26:37;;;;;;;31.83;17.38;;;;;;;0.78;60.29;98041.16;5044124;28;20136;-71
2021/01/30 08:29:21;;;;;;;37.65;19.35;;;;;;;0.80;59.86;98034.09;5041822;28;20401;-72
2021/01/30 08:31:52;;;;;;;38.00;21.13;;;;;;;0.89;59.80;98036.06;5028036;28;20051;-69
2021/01/30 08:34:36;;;;;;;52.20;25.92;;;;;;;0.93;60.00;98039.28;5042046;28;20172;-70
2021/01/30 08:37:38;;;;;;;62.15;30.70;;;;;;;1.00;59.62;98031.88;5039122;28;20049;-67
2021/01/30 08:40:12;;;;;;;72.28;34.83;;;;;;;0.88;60.04;98038.75;4997573;28;20085;-62
2021/01/30 08:42:56;;;;;;;81.50;36.03;;;;;;;0.94;59.69;98039.16;4997924;28;20038;-67
2021/01/30 08:45:28;;;;;;;60.15;29.73;;;;;;;1.00;59.49;98044.88;4993420;28;20046;-72
2021/01/30 08:48:11;;;;;;;62.03;30.05;;;;;;;1.00;59.94;98039.69;4999175;28;20135;-68
2021/01/30 08:50:42;;;;;;;54.70;27.23;;;;;;;1.07;59.83;98030.53;4998923;28;20053;-70
2021/01/30 08:53:41;;;;;;;67.72;30.77;;;;;;;1.13;59.53;98036.16;5004697;28;20049;-73
2021/01/30 08:56:10;;;;;;;57.25;31.13;;;;;;;1.16;59.46;98044.66;4991329;28;20041;-72
2021/01/30 08:58:48;;;;;;;64.32;34.33;;;;;;;1.16;59.73;98047.25;5001648;28;20065;-71
2021/01/30 09:01:50;;;;;;;100.97;52.83;;;;;;;1.25;59.47;98051.81;5003827;28;20045;-73
2021/01/30 09:04:45;;;;;;;75.70;42.58;;;;;;;1.29;59.81;98059.28;4999748;28;20642;-71
2021/01/30 09:07:40;;;;;;;57.67;34.70;;;;;;;1.34;59.43;98058.97;4979553;28;20089;-70
2021/01/30 09:10:33;;;;;;;56.38;25.23;;;;;;;1.41;59.16;98056.78;4979499;28;20513;-68
2021/01/30 09:13:06;;;;;;;66.70;32.47;;;;;;;1.49;59.24;98057.06;4979286;28;20049;-74
2021/01/30 09:15:59;;;;;;;82.47;43.83;;;;;;;1.52;59.25;98073.28;4985375;28;20059;-73
2021/01/30 09:18:45;;;;;;;85.88;49.15;;;;;;;1.48;58.98;98069.25;5001559;28;20112;-71
2021/01/30 09:21:17;;;;;;;57.88;33.53;;;;;;;1.45;59.11;98074.66;5002260;28;20042;-72
2021/01/30 09:31:31;;;;;;;145.40;79.60;;;;;;;1.36;59.27;98090.91;4896259;29;20142;-67
2021/01/30 09:40:43;;;;;;;88.35;50.13;;;;;;;1.42;59.15;98089.66;5079142;22;20073;-71
2021/01/30 09:43:10;;;;;;;49.85;27.25;;;;;;;1.50;59.04;98082.16;4883157;29;20055;-74
2021/01/30 09:45:38;;;;;;;47.28;25.00;;;;;;;1.53;59.38;98084.50;4885967;29;20055;-70
2021/01/30 09:48:14;;;;;;;61.22;38.22;;;;;;;1.58;59.05;98092.84;4879472;29;20617;-68
2021/01/30 09:50:49;;;;;;;42.92;30.58;;;;;;;1.51;59.26;98094.19;4882549;29;20068;-71
2021/01/30 09:53:27;;;;;;;54.88;32.67;;;;;;;1.48;59.42;98107.44;4883446;29;20057;-70
2021/01/30 09:56:05;;;;;;;61.80;40.40;;;;;;;1.48;59.30;98097.03;4879883;29;20080;-70
2021/01/30 09:58:35;;;;;;;50.33;32.58;;;;;;;1.49;59.46;98109.09;4883249;29;20066;-71
2021/01/30 10:01:05;;;;;;;43.28;28.42;;;;;;;1.43;59.44;98110.34;4883091;29;20048;-73
2021/01/30 10:03:36;;;;;;;54.63;32.45;;;;;;;1.45;59.41;98112.84;4885358;29;20120;-69
2021/01/30 10:06:13;;;;;;;48.22;28.65;;;;;;;1.48;59.34;98105.66;4883604;29;20059;-70
2021/01/30 10:08:40;;;;;;;43.08;28.52;;;;;;;1.58;58.84;98115.44;4880306;29;20059;-70
2021/01/30 10:11:11;;;;;;;42.47;27.45;;;;;;;1.62;59.09;98109.91;4882066;29;20506;-68
2021/01/30 10:13:42;;;;;;;40.58;26.60;;;;;;;1.63;59.15;98121.16;4883428;29;20044;-70
2021/01/30 10:16:13;;;;;;;50.17;30.92;;;;;;;1.63;59.37;98116.75;4882834;29;20049;-70
2021/01/30 10:18:44;;;;;;;53.47;30.70;;;;;;;1.63;59.24;98116.75;4885172;29;20065;-73
2021/01/30 10:21:10;;;;;;;52.08;33.40;;;;;;;1.53;59.51;98127.00;4884562;29;20127;-68
2021/01/30 10:23:40;;;;;;;55.70;34.67;;;;;;;1.57;59.37;98122.41;4881366;29;20053;-69
2021/01/30 10:26:17;;;;;;;54.78;37.42;;;;;;;1.57;59.35;98124.16;4885615;29;20055;-72
2021/01/30 10:28:48;;;;;;;51.10;36.38;;;;;;;1.60;59.53;98132.59;4886038;29;20044;-69
2021/01/30 10:31:16;;;;;;;51.00;29.60;;;;;;;1.66;59.56;98132.16;4885677;29;20049;-69
2021/01/30 10:33:49;;;;;;;51.22;28.25;;;;;;;1.81;59.57;98130.25;4966858;28;20049;-69
2021/01/30 10:36:18;;;;;;;62.88;42.58;;;;;;;1.78;59.73;98134.84;5001735;28;20050;-69
2021/01/30 10:38:46;;;;;;;62.47;39.30;;;;;;;1.77;59.94;98135.81;5003234;28;20046;-70
2021/01/30 10:41:18;;;;;;;51.25;32.60;;;;;;;1.69;59.31;98137.16;5005498;28;20054;-70
2021/01/30 10:43:48;;;;;;;49.58;32.67;;;;;;;1.74;59.33;98133.41;4999904;28;20049;-68
2021/01/30 10:46:18;;;;;;;57.92;37.95;;;;;;;1.76;59.11;98134.13;5001220;28;20050;-68
2021/01/30 10:48:46;;;;;;;54.85;37.20;;;;;;;1.65;59.28;98145.28;4999218;28;20049;-68
2021/01/30 10:51:21;;;;;;;65.10;41.63;;;;;;;1.53;59.97;98142.59;4998063;28;20117;-68
2021/01/30 10:53:48;;;;;;;67.85;43.03;;;;;;;1.54;60.22;98140.81;5000521;28;20045;-68
2021/01/30 10:56:24;;;;;;;65.68;40.15;;;;;;;1.67;60.05;98141.63;5000237;28;20053;-67
2021/01/30 10:58:53;;;;;;;58.13;41.58;;;;;;;1.72;60.28;98138.72;4998767;28;20057;-67
2021/01/30 11:01:31;;;;;;;55.22;34.75;;;;;;;1.74;60.24;98144.63;4997652;28;20050;-69
2021/01/30 11:04:01;;;;;;;46.35;30.00;;;;;;;1.89;59.71;98142.72;5001924;28;20058;-69
2021/01/30 11:06:33;;;;;;;49.88;32.38;;;;;;;1.98;59.57;98149.06;5002198;28;20498;-66
2021/01/30 11:09:11;;;;;;;52.83;32.95;;;;;;;2.15;59.41;98155.69;5002744;28;20054;-68
2021/01/30 11:11:38;;;;;;;53.13;32.17;;;;;;;2.18;59.05;98152.84;5003912;28;20410;-68
2021/01/30 11:14:15;;;;;;;55.08;36.38;;;;;;;2.20;59.00;98166.59;5004506;28;20050;-67
2021/01/30 11:16:42;;;;;;;49.72;31.35;;;;;;;2.08;58.55;98163.91;5003314;28;20093;-69
2021/01/30 11:19:25;;;;;;;55.75;37.17;;;;;;;2.05;59.04;98161.56;5007533;28;20046;-71
2021/01/30 11:22:04;;;;;;;57.88;38.22;;;;;;;2.12;58.78;98159.31;5004475;28;20491;-69
2021/01/30 11:24:33;;;;;;;68.28;43.47;;;;;;;2.26;58.83;98169.59;5005579;28;20049;-70
2021/01/30 11:27:00;;;;;;;59.63;35.17;;;;;;;2.25;59.03;98159.25;5004102;28;20046;-70
2021/01/30 11:29:39;;;;;;;57.05;40.30;;;;;;;2.18;59.27;98165.84;5006353;28;20061;-69
2021/01/30 11:32:09;;;;;;;58.83;35.38;;;;;;;2.28;58.66;98165.09;5002863;28;20046;-66
2021/01/30 11:34:38;;;;;;;63.38;40.58;;;;;;;2.30;59.26;98164.97;5006106;28;20053;-69
2021/01/30 11:37:05;;;;;;;71.53;46.38;;;;;;;2.32;59.09;98170.91;5004717;28;20609;-70
2021/01/30 11:39:35;;;;;;;67.07;44.83;;;;;;;2.24;59.12;98168.88;5004292;28;20042;-68
2021/01/30 11:42:02;;;;;;;79.32;47.40;;;;;;;2.19;59.39;98175.34;5007421;28;20089;-70
2021/01/30 11:44:28;;;;;;;71.18;43.50;;;;;;;2.17;59.55;98178.06;5011973;28;20145;-69
2021/01/30 11:46:56;;;;;;;78.70;50.70;;;;;;;2.25;59.44;98182.72;5006646;28;20172;-69
2021/01/30 11:49:22;;;;;;;78.88;53.13;;;;;;;2.19;59.52;98180.56;5009987;28;20054;-69
2021/01/30 11:51:49;;;;;;;85.30;52.53;;;;;;;2.25;59.39;98180.97;5010545;28;20058;-70
2021/01/30 11:54:16;;;;;;;81.40;51.42;;;;;;;2.22;59.32;98182.94;5008110;28;20153;-69
2021/01/30 11:56:43;;;;;;;68.53;39.17;;;;;;;2.30;59.23;98183.22;5009215;28;20092;-70
2021/01/30 11:59:12;;;;;;;77.65;48.13;;;;;;;2.28;59.26;98185.94;5010516;28;20062;-69
2021/01/30 12:01:39;;;;;;;76.97;47.17;;;;;;;2.21;59.54;98184.69;5012459;28;20053;-68
2021/01/30 12:04:07;;;;;;;81.20;52.47;;;;;;;2.18;59.73;98186.69;5012376;28;20042;-69
2021/01/30 12:06:34;;;;;;;78.03;56.15;;;;;;;2.16;59.76;98186.81;5014022;28;20050;-71